createdAt,value
2022-09-14T00:01:24.162Z,3.58
2022-09-14T00:02:29.397Z,3.83
2022-09-14T00:03:31.265Z,4.10
2022-09-14T00:04:34.120Z,3.42
2022-09-14T00:05:36.278Z,4.30
2022-09-14T00:06:39.915Z,3.22
2022-09-14T00:07:41.681Z,3.97
2022-09-14T00:08:45.392Z,4.00
2022-09-14T00:09:49.034Z,3.55
2022-09-14T00:10:51.821Z,4.03
2022-09-14T00:11:55.269Z,3.92
2022-09-14T00:13:00.519Z,4.03
2022-09-14T00:14:03.603Z,3.45
2022-09-14T00:15:08.121Z,4.30
2022-09-14T00:16:15.495Z,3.65
2022-09-14T00:17:17.874Z,4.07
2022-09-14T00:18:22.013Z,3.92
2022-09-14T00:19:25.630Z,4.70
2022-09-14T00:20:28.345Z,3.90
2022-09-14T00:21:30.209Z,4.10
2022-09-14T00:22:33.039Z,4.07
2022-09-14T00:23:37.220Z,4.18
2022-09-14T00:24:40.017Z,3.88
2022-09-14T00:25:41.912Z,3.97
2022-09-14T00:26:44.810Z,4.00
2022-09-14T00:27:46.679Z,3.85
2022-09-14T00:28:51.452Z,4.22
2022-09-14T00:29:53.437Z,3.80
2022-09-14T00:30:56.196Z,3.97
2022-09-14T00:31:58.604Z,3.55
2022-09-14T00:33:01.867Z,4.85
2022-09-14T00:34:06.960Z,4.10
2022-09-14T00:35:11.071Z,3.90
2022-09-14T00:36:14.545Z,4.50
2022-09-14T00:37:17.363Z,4.47
2022-09-14T00:38:19.117Z,3.40
2022-09-14T00:39:24.794Z,4.30
2022-09-14T00:40:26.773Z,3.13
2022-09-14T00:41:32.944Z,4.15
2022-09-14T00:42:34.774Z,3.60
2022-09-14T00:43:53.960Z,3.63
2022-09-14T00:45:08.267Z,3.45
2022-09-14T00:46:10.176Z,4.50
2022-09-14T00:47:15.104Z,3.80
2022-09-14T00:48:17.558Z,3.80
2022-09-14T00:49:25.042Z,4.15
2022-09-14T00:50:26.821Z,4.20
2022-09-14T00:51:33.015Z,4.07
2022-09-14T00:52:38.069Z,4.82
2022-09-14T00:53:41.190Z,4.47
2022-09-14T00:54:46.676Z,3.90
2022-09-14T00:55:51.113Z,3.97
2022-09-14T00:56:54.779Z,3.90
2022-09-14T00:57:57.802Z,4.30
2022-09-14T00:59:05.651Z,3.88
2022-09-14T01:00:11.600Z,3.90
2022-09-14T01:01:13.905Z,4.43
2022-09-14T01:02:19.410Z,4.20
2022-09-14T01:03:21.771Z,3.75
2022-09-14T01:04:26.289Z,4.00
2022-09-14T01:05:38.661Z,6.47
2022-09-14T01:06:50.704Z,4.70
2022-09-14T01:08:04.659Z,3.97
2022-09-14T01:09:24.008Z,4.10
2022-09-14T01:10:40.922Z,4.00
2022-09-14T01:11:52.945Z,4.22
2022-09-14T01:13:08.339Z,4.18
2022-09-14T01:14:17.427Z,3.83
2022-09-14T01:15:27.903Z,3.50
2022-09-14T01:16:37.553Z,3.92
2022-09-14T01:17:48.593Z,4.20
2022-09-14T01:18:55.437Z,4.25
2022-09-14T01:20:27.041Z,4.03
2022-09-14T01:21:32.620Z,4.30
2022-09-14T01:22:43.978Z,4.25
2022-09-14T01:23:53.628Z,4.13
2022-09-14T01:25:06.097Z,3.97
2022-09-14T01:27:00.100Z,3.50
2022-09-14T01:28:10.342Z,4.75
2022-09-14T01:29:17.566Z,4.18
2022-09-14T01:30:22.745Z,4.40
2022-09-14T01:31:32.149Z,3.90
2022-09-14T01:32:39.969Z,3.85
2022-09-14T01:33:47.468Z,4.22
2022-09-14T01:34:58.046Z,3.72
2022-09-14T01:36:05.366Z,5.05
2022-09-14T01:37:13.135Z,4.03
2022-09-14T01:38:21.868Z,3.70
2022-09-14T01:39:23.900Z,4.30
2022-09-14T01:40:31.438Z,4.18
2022-09-14T01:41:34.689Z,3.40
2022-09-14T01:42:40.569Z,4.20
2022-09-14T01:43:46.555Z,3.92
2022-09-14T01:44:52.656Z,3.85
2022-09-14T01:45:58.332Z,4.28
2022-09-14T01:47:07.693Z,5.88
2022-09-14T01:48:12.702Z,3.80
2022-09-14T01:49:20.866Z,3.67
2022-09-14T01:50:28.255Z,3.60
2022-09-14T01:51:39.516Z,3.95
2022-09-14T01:52:46.900Z,4.10
2022-09-14T01:53:53.771Z,4.05
2022-09-14T01:55:00.155Z,3.88
2022-09-14T01:56:07.308Z,4.30
2022-09-14T01:57:16.469Z,4.93
2022-09-14T01:58:26.887Z,5.88
2022-09-14T01:59:34.168Z,4.35
2022-09-14T02:00:39.355Z,4.45
2022-09-14T02:01:50.149Z,4.05
2022-09-14T02:02:56.316Z,4.15
2022-09-14T02:04:02.577Z,3.78
2022-09-14T02:05:09.535Z,4.30
2022-09-14T02:06:17.972Z,4.57
2022-09-14T02:07:21.895Z,3.88
2022-09-14T02:08:26.908Z,4.20
2022-09-14T02:09:29.770Z,4.80
2022-09-14T02:10:32.343Z,3.92
2022-09-14T02:11:35.266Z,4.68
2022-09-14T02:12:37.681Z,4.32
2022-09-14T02:13:40.642Z,3.90
2022-09-14T02:14:46.213Z,4.50
2022-09-14T02:15:49.211Z,3.85
2022-09-14T02:16:51.110Z,3.65
2022-09-14T02:17:54.400Z,4.20
2022-09-14T02:18:56.323Z,3.53
2022-09-14T02:20:02.851Z,4.93
2022-09-14T02:21:12.197Z,3.58
2022-09-14T02:22:15.386Z,3.42
2022-09-14T02:23:17.786Z,3.63
2022-09-14T02:24:21.853Z,3.40
2022-09-14T02:25:23.665Z,3.50
2022-09-14T02:26:27.155Z,4.20
2022-09-14T02:27:29.037Z,3.97
2022-09-14T02:28:32.141Z,2.95
2022-09-14T02:29:34.613Z,3.40
2022-09-14T02:30:49.401Z,3.58
2022-09-14T02:31:59.719Z,3.35
2022-09-14T02:33:09.577Z,3.33
2022-09-14T02:34:25.287Z,3.42
2022-09-14T02:35:37.182Z,3.78
2022-09-14T02:36:47.948Z,3.60
2022-09-14T02:37:58.850Z,3.22
2022-09-14T02:39:06.656Z,3.20
2022-09-14T02:40:19.175Z,3.80
2022-09-14T02:41:31.478Z,3.17
2022-09-14T02:42:40.215Z,3.15
2022-09-14T02:43:49.314Z,3.03
2022-09-14T02:45:01.601Z,3.13
2022-09-14T02:46:15.588Z,3.60
2022-09-14T02:47:23.533Z,3.17
2022-09-14T02:48:35.607Z,3.25
2022-09-14T02:49:44.646Z,2.65
2022-09-14T02:50:53.002Z,3.33
2022-09-14T02:52:00.107Z,3.28
2022-09-14T02:53:08.641Z,3.22
2022-09-14T02:54:14.711Z,3.28
2022-09-14T02:55:21.056Z,3.20
2022-09-14T02:56:23.056Z,3.28
2022-09-14T02:57:26.147Z,2.97
2022-09-14T02:58:35.112Z,3.00
2022-09-14T02:59:37.857Z,3.30
2022-09-14T03:00:41.774Z,3.65
2022-09-14T03:01:46.107Z,3.25
2022-09-14T03:02:48.034Z,3.22
2022-09-14T03:03:51.059Z,3.17
2022-09-14T03:04:53.263Z,3.58
2022-09-14T03:05:57.268Z,2.90
2022-09-14T03:06:59.100Z,3.35
2022-09-14T03:08:03.034Z,3.28
2022-09-14T03:09:04.808Z,3.20
2022-09-14T03:10:08.335Z,3.13
2022-09-14T03:11:10.545Z,3.22
2022-09-14T03:12:13.550Z,3.83
2022-09-14T03:13:15.400Z,4.13
2022-09-14T03:14:18.160Z,3.50
2022-09-14T03:15:20.212Z,3.65
2022-09-14T03:16:23.226Z,2.97
2022-09-14T03:17:26.426Z,3.30
2022-09-14T03:18:29.210Z,3.22
2022-09-14T03:19:31.135Z,3.00
2022-09-14T03:20:35.073Z,2.97
2022-09-14T03:21:39.066Z,3.05
2022-09-14T03:22:42.178Z,2.80
2022-09-14T03:23:45.710Z,3.67
2022-09-14T03:24:48.465Z,3.20
2022-09-14T03:25:50.257Z,3.55
2022-09-14T03:26:53.030Z,3.90
2022-09-14T03:27:56.443Z,3.15
2022-09-14T03:29:00.372Z,3.15
2022-09-14T03:30:04.709Z,3.53
2022-09-14T03:31:09.634Z,3.10
2022-09-14T03:32:12.368Z,3.20
2022-09-14T03:33:16.656Z,3.15
2022-09-14T03:34:18.516Z,3.30
2022-09-14T03:35:21.535Z,3.45
2022-09-14T03:36:26.278Z,2.80
2022-09-14T03:37:28.068Z,3.75
2022-09-14T03:38:30.854Z,3.30
2022-09-14T03:39:32.974Z,3.10
2022-09-14T03:40:35.957Z,3.28
2022-09-14T03:41:38.169Z,3.03
2022-09-14T03:42:43.969Z,3.50
2022-09-14T03:43:46.243Z,3.28
2022-09-14T03:44:49.062Z,2.90
2022-09-14T03:45:51.983Z,2.88
2022-09-14T03:46:53.833Z,2.90
2022-09-14T03:47:56.721Z,3.00
2022-09-14T03:48:59.853Z,3.97
2022-09-14T03:50:02.638Z,2.58
2022-09-14T03:51:06.469Z,2.65
2022-09-14T03:52:09.561Z,3.08
2022-09-14T03:53:11.311Z,3.60
2022-09-14T03:54:14.129Z,2.78
2022-09-14T03:55:16.117Z,3.25
2022-09-14T03:56:20.268Z,2.88
2022-09-14T03:57:22.092Z,3.05
2022-09-14T03:58:25.608Z,2.55
2022-09-14T03:59:27.496Z,2.90
2022-09-14T04:00:30.513Z,3.08
2022-09-14T04:01:32.924Z,2.97
2022-09-14T04:02:35.953Z,2.53
2022-09-14T04:03:38.455Z,2.63
2022-09-14T04:04:42.889Z,2.90
2022-09-14T04:05:55.000Z,3.85
2022-09-14T04:06:57.810Z,2.70
2022-09-14T04:07:59.676Z,2.60
2022-09-14T04:09:02.632Z,2.90
2022-09-14T04:10:06.187Z,2.70
2022-09-14T04:11:09.688Z,2.78
2022-09-14T04:12:11.479Z,2.58
2022-09-14T04:13:14.684Z,2.83
2022-09-14T04:14:16.454Z,3.00
2022-09-14T04:15:19.274Z,2.53
2022-09-14T04:16:22.098Z,2.80
2022-09-14T04:17:25.070Z,2.80
2022-09-14T04:18:27.701Z,2.80
2022-09-14T04:19:31.033Z,3.08
2022-09-14T04:20:34.217Z,2.92
2022-09-14T04:21:36.949Z,2.75
2022-09-14T04:22:38.836Z,2.47
2022-09-14T04:24:10.142Z,2.85
2022-09-14T04:25:03.862Z,2.85
2022-09-14T04:26:12.238Z,2.90
2022-09-14T04:27:14.333Z,3.28
2022-09-14T04:28:20.430Z,3.05
2022-09-14T04:29:22.773Z,2.50
2022-09-14T04:30:25.535Z,2.70
2022-09-14T04:31:27.582Z,3.00
2022-09-14T04:32:34.235Z,2.40
2022-09-14T04:33:37.386Z,2.63
2022-09-14T04:34:40.165Z,3.10
2022-09-14T04:35:43.299Z,2.45
2022-09-14T04:36:46.281Z,2.90
2022-09-14T04:37:48.083Z,2.80
2022-09-14T04:38:54.240Z,2.60
2022-09-14T04:39:56.070Z,2.55
2022-09-14T04:40:59.497Z,2.65
2022-09-14T04:42:02.302Z,2.90
2022-09-14T04:43:04.129Z,2.78
2022-09-14T04:44:07.032Z,2.75
2022-09-14T04:45:09.768Z,2.65
2022-09-14T04:46:14.880Z,2.83
2022-09-14T04:47:17.727Z,3.30
2022-09-14T04:48:20.451Z,2.50
2022-09-14T04:49:23.264Z,2.70
2022-09-14T04:50:25.055Z,2.60
2022-09-14T04:51:32.564Z,3.17
2022-09-14T04:52:34.410Z,2.63
2022-09-14T04:53:39.153Z,2.83
2022-09-14T04:54:41.978Z,2.55
2022-09-14T04:55:43.823Z,2.33
2022-09-14T04:56:47.053Z,3.35
2022-09-14T04:57:49.308Z,2.22
2022-09-14T04:58:54.257Z,2.20
2022-09-14T04:59:56.051Z,2.42
2022-09-14T05:01:02.427Z,3.00
2022-09-14T05:02:04.430Z,2.60
2022-09-14T05:03:07.352Z,2.72
2022-09-14T05:04:10.812Z,3.03
2022-09-14T05:05:13.752Z,2.40
2022-09-14T05:06:17.188Z,2.50
2022-09-14T05:07:21.534Z,3.00
2022-09-14T05:08:23.418Z,2.30
2022-09-14T05:09:26.481Z,2.40
2022-09-14T05:10:28.369Z,2.40
2022-09-14T05:11:33.572Z,3.00
2022-09-14T05:12:35.457Z,2.05
2022-09-14T05:13:38.226Z,2.20
2022-09-14T05:14:40.072Z,2.10
2022-09-14T05:15:43.119Z,2.42
2022-09-14T05:16:47.951Z,2.40
2022-09-14T05:17:49.720Z,2.13
2022-09-14T05:18:55.289Z,2.53
2022-09-14T05:19:57.104Z,2.75
2022-09-14T05:21:06.339Z,2.40
2022-09-14T05:22:11.115Z,2.35
2022-09-14T05:23:14.359Z,2.53
2022-09-14T05:24:19.472Z,2.50
2022-09-14T05:25:21.419Z,2.53
2022-09-14T05:26:24.596Z,2.17
2022-09-14T05:27:26.527Z,2.17
2022-09-14T05:28:29.678Z,2.55
2022-09-14T05:29:31.918Z,2.50
2022-09-14T05:30:34.834Z,2.75
2022-09-14T05:31:37.704Z,2.08
2022-09-14T05:32:40.489Z,3.50
2022-09-14T05:33:42.345Z,2.65
2022-09-14T05:34:45.098Z,2.90
2022-09-14T05:35:46.987Z,2.53
2022-09-14T05:36:49.711Z,2.40
2022-09-14T05:37:51.673Z,2.50
2022-09-14T05:38:57.622Z,2.45
2022-09-14T05:39:59.520Z,3.10
2022-09-14T05:41:02.418Z,2.22
2022-09-14T05:42:05.824Z,2.90
2022-09-14T05:43:08.013Z,3.45
2022-09-14T05:44:10.961Z,2.60
2022-09-14T05:45:12.821Z,2.63
2022-09-14T05:46:17.603Z,2.33
2022-09-14T05:47:19.483Z,2.40
2022-09-14T05:48:22.674Z,2.90
2022-09-14T05:49:25.274Z,2.30
2022-09-14T05:50:28.055Z,2.28
2022-09-14T05:51:29.854Z,2.70
2022-09-14T05:52:32.770Z,2.65
2022-09-14T05:53:35.155Z,2.25
2022-09-14T05:54:39.455Z,2.90
2022-09-14T05:55:41.339Z,2.58
2022-09-14T05:56:44.048Z,2.88
2022-09-14T05:57:49.047Z,2.40
2022-09-14T05:58:51.892Z,2.53
2022-09-14T05:59:53.785Z,2.08
2022-09-14T06:00:56.623Z,2.40
2022-09-14T06:01:58.689Z,2.35
2022-09-14T06:03:01.517Z,2.75
2022-09-14T06:04:04.859Z,2.50
2022-09-14T06:05:07.360Z,2.42
2022-09-14T06:06:11.827Z,2.70
2022-09-14T06:07:18.671Z,2.70
2022-09-14T06:08:21.691Z,3.00
2022-09-14T06:09:27.997Z,2.65
2022-09-14T06:10:33.425Z,2.20
2022-09-14T06:11:37.335Z,1.95
2022-09-14T06:12:39.247Z,2.40
2022-09-14T06:13:42.609Z,2.60
2022-09-14T06:14:44.593Z,2.63
2022-09-14T06:15:47.504Z,2.40
2022-09-14T06:16:50.259Z,2.10
2022-09-14T06:17:52.061Z,2.30
2022-09-14T06:18:56.272Z,2.17
2022-09-14T06:20:01.107Z,2.10
2022-09-14T06:21:08.463Z,1.98
2022-09-14T06:22:10.412Z,2.50
2022-09-14T06:23:13.271Z,2.90
2022-09-14T06:24:16.195Z,2.40
2022-09-14T06:25:17.946Z,2.40
2022-09-14T06:26:22.114Z,1.98
2022-09-14T06:27:24.222Z,2.10
2022-09-14T06:28:28.190Z,2.00
2022-09-14T06:29:30.962Z,1.90
2022-09-14T06:30:32.769Z,2.60
2022-09-14T06:31:36.048Z,2.40
2022-09-14T06:32:37.802Z,2.10
2022-09-14T06:33:44.678Z,1.60
2022-09-14T06:34:47.606Z,2.55
2022-09-14T06:35:56.469Z,2.35
2022-09-14T06:36:59.281Z,2.30
2022-09-14T06:38:01.064Z,2.40
2022-09-14T06:39:03.883Z,2.58
2022-09-14T06:40:06.664Z,2.08
2022-09-14T06:41:12.292Z,2.35
2022-09-14T06:42:16.481Z,2.10
2022-09-14T06:43:18.323Z,2.22
2022-09-14T06:44:21.219Z,2.85
2022-09-14T06:45:23.048Z,2.05
2022-09-14T06:46:28.507Z,2.15
2022-09-14T06:47:32.300Z,2.60
2022-09-14T06:48:37.669Z,2.53
2022-09-14T06:49:39.648Z,2.15
2022-09-14T06:50:42.504Z,2.40
2022-09-14T06:51:46.479Z,1.95
2022-09-14T06:52:49.273Z,2.25
2022-09-14T06:53:51.999Z,2.03
2022-09-14T06:54:55.065Z,2.50
2022-09-14T06:55:59.241Z,2.28
2022-09-14T06:57:02.010Z,2.20
2022-09-14T06:58:05.235Z,3.00
2022-09-14T06:59:09.808Z,2.33
2022-09-14T07:00:12.685Z,1.90
2022-09-14T07:01:17.951Z,2.30
2022-09-14T07:02:20.304Z,2.28
2022-09-14T07:03:24.393Z,1.92
2022-09-14T07:04:26.242Z,2.70
2022-09-14T07:05:31.055Z,2.20
2022-09-14T07:06:40.199Z,2.40
2022-09-14T07:07:42.141Z,2.35
2022-09-14T07:08:45.561Z,3.33
2022-09-14T07:09:47.377Z,2.10
2022-09-14T07:10:57.252Z,2.60
2022-09-14T07:12:00.161Z,2.10
2022-09-14T07:13:02.059Z,1.98
2022-09-14T07:14:06.941Z,1.70
2022-09-14T07:15:09.689Z,2.13
2022-09-14T07:16:12.994Z,2.10
2022-09-14T07:17:15.154Z,2.22
2022-09-14T07:18:18.360Z,1.52
2022-09-14T07:19:21.148Z,2.58
2022-09-14T07:20:23.038Z,1.80
2022-09-14T07:21:27.136Z,1.70
2022-09-14T07:22:28.916Z,2.10
2022-09-14T07:23:32.427Z,1.90
2022-09-14T07:24:35.187Z,2.25
2022-09-14T07:25:36.990Z,2.00
2022-09-14T07:26:42.236Z,1.63
2022-09-14T07:27:44.084Z,2.47
2022-09-14T07:28:48.731Z,2.08
2022-09-14T07:29:53.662Z,1.95
2022-09-14T07:30:58.871Z,2.10
2022-09-14T07:32:02.153Z,2.00
2022-09-14T07:33:04.795Z,2.40
2022-09-14T07:34:07.932Z,2.00
2022-09-14T07:35:09.733Z,1.70
2022-09-14T07:36:13.762Z,1.95
2022-09-14T07:37:15.600Z,1.95
2022-09-14T07:38:27.058Z,1.90
2022-09-14T07:39:41.161Z,1.70
2022-09-14T07:40:43.357Z,2.55
2022-09-14T07:41:46.659Z,2.03
2022-09-14T07:42:56.794Z,2.00
2022-09-14T07:44:00.706Z,2.15
2022-09-14T07:45:05.932Z,2.30
2022-09-14T07:46:08.077Z,1.80
2022-09-14T07:47:10.989Z,2.00
2022-09-14T07:48:13.886Z,2.08
2022-09-14T07:49:17.120Z,1.90
2022-09-14T07:50:20.916Z,3.08
2022-09-14T07:51:23.873Z,2.25
2022-09-14T07:52:27.022Z,1.90
2022-09-14T07:53:29.061Z,1.90
2022-09-14T07:54:32.092Z,2.25
2022-09-14T07:55:34.251Z,2.17
2022-09-14T07:56:37.000Z,1.95
2022-09-14T07:57:55.215Z,2.65
2022-09-14T07:59:17.578Z,2.28
2022-09-14T08:00:25.649Z,2.00
2022-09-14T08:01:30.302Z,2.05
2022-09-14T08:02:33.571Z,2.35
2022-09-14T08:03:36.366Z,1.98
2022-09-14T08:04:40.220Z,2.53
2022-09-14T08:05:42.228Z,2.15
2022-09-14T08:06:45.815Z,2.35
2022-09-14T08:07:47.779Z,1.95
2022-09-14T08:08:53.644Z,2.00
2022-09-14T08:09:57.245Z,1.88
2022-09-14T08:11:05.773Z,1.95
2022-09-14T08:12:08.653Z,2.45
2022-09-14T08:13:10.397Z,1.80
2022-09-14T08:14:14.051Z,1.95
2022-09-14T08:15:16.968Z,1.95
2022-09-14T08:16:22.218Z,2.03
2022-09-14T08:17:24.090Z,2.50
2022-09-14T08:18:28.057Z,2.33
2022-09-14T08:19:30.801Z,2.20
2022-09-14T08:20:32.581Z,1.90
2022-09-14T08:21:37.099Z,2.20
2022-09-14T08:22:39.176Z,2.00
2022-09-14T08:23:42.958Z,2.33
2022-09-14T08:24:45.665Z,2.20
2022-09-14T08:25:47.508Z,2.42
2022-09-14T08:26:50.661Z,1.83
2022-09-14T08:27:52.449Z,2.20
2022-09-14T08:28:56.489Z,2.20
2022-09-14T08:29:58.237Z,2.13
2022-09-14T08:31:05.607Z,2.10
2022-09-14T08:32:12.415Z,1.83
2022-09-14T08:33:14.375Z,1.85
2022-09-14T08:34:17.746Z,2.10
2022-09-14T08:35:30.878Z,2.03
2022-09-14T08:36:43.471Z,2.00
2022-09-14T08:37:47.285Z,2.20
2022-09-14T08:38:49.751Z,2.00
2022-09-14T08:39:53.390Z,2.40
2022-09-14T08:40:56.439Z,2.17
2022-09-14T08:42:01.826Z,2.30
2022-09-14T08:43:04.450Z,2.30
2022-09-14T08:44:16.965Z,1.95
2022-09-14T08:45:18.829Z,2.40
2022-09-14T08:46:29.866Z,2.08
2022-09-14T08:47:36.758Z,2.90
2022-09-14T08:48:44.192Z,2.28
2022-09-14T08:49:51.373Z,2.92
2022-09-14T08:50:54.105Z,2.03
2022-09-14T08:51:57.355Z,2.47
2022-09-14T08:52:59.972Z,2.20
2022-09-14T08:54:03.157Z,2.33
2022-09-14T08:55:21.040Z,2.10
2022-09-14T08:56:27.609Z,2.17
2022-09-14T08:57:37.783Z,2.17
2022-09-14T08:58:53.494Z,2.28
2022-09-14T09:00:02.715Z,2.05
2022-09-14T09:01:24.727Z,2.10
2022-09-14T09:02:54.702Z,1.95
2022-09-14T09:04:21.534Z,2.70
2022-09-14T09:05:32.854Z,2.00
2022-09-14T09:06:45.052Z,1.42
2022-09-14T09:07:57.068Z,2.05
2022-09-14T09:09:05.311Z,2.05
2022-09-14T09:10:11.728Z,2.50
2022-09-14T09:11:18.542Z,2.42
2022-09-14T09:12:24.202Z,2.15
2022-09-14T09:13:31.757Z,2.00
2022-09-14T09:14:38.157Z,2.25
2022-09-14T09:15:48.889Z,2.20
2022-09-14T09:16:55.009Z,2.20
2022-09-14T09:18:02.266Z,1.85
2022-09-14T09:19:12.896Z,2.88
2022-09-14T09:20:19.665Z,1.92
2022-09-14T09:21:26.377Z,2.70
2022-09-14T09:22:33.411Z,2.00
2022-09-14T09:23:36.939Z,2.15
2022-09-14T09:24:41.854Z,2.05
2022-09-14T09:25:58.781Z,1.83
2022-09-14T09:27:01.116Z,2.20
2022-09-14T09:28:11.606Z,2.40
2022-09-14T09:29:14.327Z,1.88
2022-09-14T09:30:35.790Z,2.00
2022-09-14T09:31:44.345Z,1.85
2022-09-14T09:33:08.544Z,2.50
2022-09-14T09:34:31.854Z,2.35
2022-09-14T09:35:49.529Z,2.35
2022-09-14T09:36:57.240Z,2.28
2022-09-14T09:37:59.337Z,2.15
2022-09-14T09:39:05.163Z,2.22
2022-09-14T09:40:16.474Z,2.75
2022-09-14T09:41:23.663Z,2.65
2022-09-14T09:42:28.102Z,2.30
2022-09-14T09:43:48.373Z,2.75
2022-09-14T09:45:00.664Z,1.98
2022-09-14T09:46:08.285Z,2.30
2022-09-14T09:47:10.167Z,2.05
2022-09-14T09:48:14.464Z,3.17
2022-09-14T09:49:21.895Z,2.25
2022-09-14T09:50:26.295Z,2.58
2022-09-14T09:51:32.155Z,2.28
2022-09-14T09:52:34.788Z,2.50
2022-09-14T09:53:39.686Z,2.35
2022-09-14T09:54:44.801Z,2.60
2022-09-14T09:55:49.399Z,1.90
2022-09-14T09:56:55.042Z,2.55
2022-09-14T09:57:56.905Z,2.53
2022-09-14T09:58:59.886Z,2.20
2022-09-14T10:00:20.226Z,2.40
2022-09-14T10:01:28.760Z,2.35
2022-09-14T10:02:32.155Z,2.17
2022-09-14T10:03:38.018Z,2.25
2022-09-14T10:04:56.650Z,2.10
2022-09-14T10:06:12.358Z,2.40
2022-09-14T10:07:21.433Z,2.95
2022-09-14T10:08:24.255Z,2.28
2022-09-14T10:09:29.232Z,2.10
2022-09-14T10:10:42.961Z,2.65
2022-09-14T10:11:47.657Z,2.58
2022-09-14T10:12:52.893Z,2.85
2022-09-14T10:13:55.793Z,1.98
2022-09-14T10:15:16.580Z,2.67
2022-09-14T10:16:21.604Z,2.53
2022-09-14T10:17:23.695Z,2.38
2022-09-14T10:18:28.603Z,2.08
2022-09-14T10:19:30.986Z,2.97
2022-09-14T10:20:34.087Z,3.45
2022-09-14T10:22:06.641Z,2.53
2022-09-14T10:23:33.261Z,2.65
2022-09-14T10:24:36.322Z,2.28
2022-09-14T10:25:39.127Z,2.15
2022-09-14T10:26:40.942Z,2.50
2022-09-14T10:27:48.483Z,2.38
2022-09-14T10:28:51.701Z,2.40
2022-09-14T10:29:57.708Z,2.70
2022-09-14T10:31:03.494Z,2.70
2022-09-14T10:32:17.642Z,2.97
2022-09-14T10:33:20.471Z,2.58
2022-09-14T10:34:22.484Z,2.72
2022-09-14T10:35:35.304Z,2.20
2022-09-14T10:36:44.882Z,2.55
2022-09-14T10:38:01.694Z,2.00
2022-09-14T10:39:16.102Z,2.60
2022-09-14T10:40:22.958Z,2.05
2022-09-14T10:41:31.189Z,2.75
2022-09-14T10:42:37.951Z,2.83
2022-09-14T10:43:57.526Z,2.47
2022-09-14T10:45:10.880Z,2.67
2022-09-14T10:46:17.599Z,2.20
2022-09-14T10:47:41.703Z,2.63
2022-09-14T10:49:01.136Z,2.60
2022-09-14T10:50:19.483Z,2.40
2022-09-14T10:51:43.832Z,2.70
2022-09-14T10:52:55.754Z,2.67
2022-09-14T10:54:08.379Z,2.67
2022-09-14T10:55:31.971Z,3.20
2022-09-14T10:56:42.446Z,2.97
2022-09-14T10:57:52.770Z,2.20
2022-09-14T10:59:10.902Z,2.38
2022-09-14T11:00:18.426Z,2.22
2022-09-14T11:01:32.788Z,2.33
2022-09-14T11:02:51.809Z,2.30
2022-09-14T11:04:06.586Z,2.55
2022-09-14T11:05:16.401Z,2.80
2022-09-14T11:06:35.049Z,2.50
2022-09-14T11:07:46.752Z,2.30
2022-09-14T11:08:55.370Z,3.10
2022-09-14T11:10:05.363Z,2.42
2022-09-14T11:11:33.727Z,3.65
2022-09-14T11:12:43.179Z,3.05
2022-09-14T11:14:06.000Z,2.67
2022-09-14T11:15:19.821Z,3.05
2022-09-14T11:16:35.116Z,2.42
2022-09-14T11:17:51.577Z,2.50
2022-09-14T11:19:14.641Z,2.65
2022-09-14T11:20:26.516Z,2.72
2022-09-14T11:21:40.045Z,2.22
2022-09-14T11:22:54.146Z,2.80
2022-09-14T11:24:00.171Z,2.72
2022-09-14T11:25:11.406Z,2.22
2022-09-14T11:26:17.092Z,2.80
2022-09-14T11:27:27.708Z,3.28
2022-09-14T11:28:33.140Z,2.55
2022-09-14T11:29:41.780Z,3.30
2022-09-14T11:30:50.231Z,3.40
2022-09-14T11:32:19.803Z,2.72
2022-09-14T11:33:31.059Z,2.20
2022-09-14T11:34:37.932Z,2.72
2022-09-14T11:35:45.168Z,2.70
2022-09-14T11:36:50.869Z,2.80
2022-09-14T11:37:59.457Z,2.60
2022-09-14T11:39:07.061Z,3.22
2022-09-14T11:40:19.155Z,2.72
2022-09-14T11:41:27.109Z,3.08
2022-09-14T11:42:36.828Z,2.40
2022-09-14T11:43:46.695Z,2.90
2022-09-14T11:44:55.149Z,2.88
2022-09-14T11:46:07.084Z,2.67
2022-09-14T11:47:18.751Z,3.00
2022-09-14T11:48:43.960Z,2.80
2022-09-14T11:50:02.022Z,2.67
2022-09-14T11:51:09.429Z,2.47
2022-09-14T11:52:19.411Z,2.28
2022-09-14T11:53:26.270Z,2.78
2022-09-14T11:54:28.243Z,2.47
2022-09-14T11:55:32.035Z,3.10
2022-09-14T11:56:34.399Z,2.60
2022-09-14T11:57:39.394Z,2.30
2022-09-14T11:58:41.325Z,2.70
2022-09-14T11:59:51.265Z,2.75
2022-09-14T12:01:19.522Z,2.50
2022-09-14T12:03:13.161Z,2.42
2022-09-14T12:04:17.086Z,2.00
2022-09-14T12:05:32.423Z,2.95
2022-09-14T12:06:59.101Z,2.70
2022-09-14T12:08:24.804Z,1.95
2022-09-14T12:09:50.197Z,2.35
2022-09-14T12:11:03.811Z,2.50
2022-09-14T12:12:35.462Z,2.60
2022-09-14T12:13:38.683Z,2.30
2022-09-14T12:14:44.058Z,2.60
2022-09-14T12:15:47.526Z,2.30
2022-09-14T12:17:17.319Z,2.45
2022-09-14T12:18:28.657Z,2.58
2022-09-14T12:19:30.951Z,2.60
2022-09-14T12:20:44.346Z,2.20
2022-09-14T12:21:46.391Z,3.05
2022-09-14T12:22:50.539Z,2.60
2022-09-14T12:23:57.763Z,2.30
2022-09-14T12:25:17.908Z,2.53
2022-09-14T12:26:39.478Z,2.53
2022-09-14T12:27:42.955Z,2.30
2022-09-14T12:28:52.328Z,2.10
2022-09-14T12:29:54.586Z,2.58
2022-09-14T12:31:31.403Z,2.85
2022-09-14T12:32:43.296Z,2.60
2022-09-14T12:34:05.991Z,2.58
2022-09-14T12:35:45.065Z,3.03
2022-09-14T12:37:00.439Z,2.05
2022-09-14T12:38:36.444Z,2.60
2022-09-14T12:39:38.494Z,2.13
2022-09-14T12:40:43.324Z,2.70
2022-09-14T12:42:02.030Z,2.78
2022-09-14T12:43:37.452Z,2.15
2022-09-14T12:44:42.254Z,2.80
2022-09-14T12:45:49.834Z,2.20
2022-09-14T12:46:52.713Z,2.40
2022-09-14T12:47:54.516Z,2.35
2022-09-14T12:49:03.098Z,2.63
2022-09-14T12:50:10.638Z,2.70
2022-09-14T12:51:20.732Z,2.78
2022-09-14T12:52:36.728Z,2.70
2022-09-14T12:53:40.931Z,2.42
2022-09-14T12:54:55.174Z,2.63
2022-09-14T12:56:05.058Z,2.70
2022-09-14T12:57:19.782Z,3.05
2022-09-14T12:58:34.772Z,2.42
2022-09-14T12:59:47.753Z,3.05
2022-09-14T13:01:01.017Z,3.28
2022-09-14T13:02:25.573Z,2.10
2022-09-14T13:03:47.170Z,2.42
2022-09-14T13:04:53.221Z,2.70
2022-09-14T13:05:56.405Z,2.50
2022-09-14T13:07:00.486Z,2.78
2022-09-14T13:08:11.060Z,3.28
2022-09-14T13:09:21.299Z,2.17
2022-09-14T13:10:26.388Z,2.60
2022-09-14T13:11:34.885Z,3.13
2022-09-14T13:12:41.178Z,2.83
2022-09-14T13:13:44.269Z,2.25
2022-09-14T13:14:50.477Z,3.08
2022-09-14T13:15:55.896Z,3.70
2022-09-14T13:17:01.072Z,2.47
2022-09-14T13:18:04.902Z,2.50
2022-09-14T13:19:21.068Z,2.67
2022-09-14T13:20:23.119Z,2.55
2022-09-14T13:21:25.987Z,2.80
2022-09-14T13:22:29.477Z,2.78
2022-09-14T13:23:38.238Z,3.00
2022-09-14T13:24:45.060Z,2.72
2022-09-14T13:25:48.282Z,2.92
2022-09-14T13:26:52.253Z,3.20
2022-09-14T13:27:56.430Z,2.70
2022-09-14T13:29:02.355Z,2.40
2022-09-14T13:30:07.880Z,2.90
2022-09-14T13:31:14.203Z,3.03
2022-09-14T13:32:20.864Z,2.40
2022-09-14T13:33:23.955Z,2.30
2022-09-14T13:34:28.600Z,3.30
2022-09-14T13:35:33.481Z,2.60
2022-09-14T13:36:44.579Z,2.90
2022-09-14T13:37:48.497Z,3.28
2022-09-14T13:38:52.388Z,2.90
2022-09-14T13:39:56.796Z,2.75
2022-09-14T13:41:07.781Z,2.88
2022-09-14T13:42:12.126Z,3.10
2022-09-14T13:43:16.317Z,2.45
2022-09-14T13:44:20.344Z,2.50
2022-09-14T13:45:23.324Z,3.22
2022-09-14T13:46:27.896Z,2.30
2022-09-14T13:47:29.884Z,2.15
2022-09-14T13:48:32.766Z,2.88
2022-09-14T13:49:35.577Z,2.40
2022-09-14T13:50:38.456Z,2.50
2022-09-14T13:51:41.397Z,2.70
2022-09-14T13:53:01.065Z,2.38
2022-09-14T13:54:19.674Z,2.55
2022-09-14T13:55:25.860Z,2.65
2022-09-14T13:56:31.856Z,2.17
2022-09-14T13:57:35.189Z,2.60
2022-09-14T13:58:37.975Z,2.60
2022-09-14T14:00:17.091Z,2.50
2022-09-14T14:01:28.501Z,2.42
2022-09-14T14:02:34.070Z,2.40
2022-09-14T14:03:39.548Z,2.70
2022-09-14T14:04:42.398Z,2.45
2022-09-14T14:05:44.222Z,2.92
2022-09-14T14:06:47.179Z,2.00
2022-09-14T14:07:49.117Z,2.78
2022-09-14T14:09:01.328Z,2.03
2022-09-14T14:10:04.153Z,2.75
2022-09-14T14:11:08.990Z,2.05
2022-09-14T14:12:20.152Z,2.63
2022-09-14T14:13:27.782Z,2.40
2022-09-14T14:14:31.543Z,2.50
2022-09-14T14:15:39.262Z,2.33
2022-09-14T14:16:42.655Z,2.35
2022-09-14T14:17:44.832Z,2.70
2022-09-14T14:18:53.008Z,2.00
2022-09-14T14:19:57.235Z,2.15
2022-09-14T14:21:16.810Z,2.50
2022-09-14T14:22:20.401Z,2.20
2022-09-14T14:23:24.682Z,2.40
2022-09-14T14:24:28.259Z,2.88
2022-09-14T14:25:33.825Z,2.30
2022-09-14T14:26:35.716Z,2.25
2022-09-14T14:27:44.267Z,2.00
2022-09-14T14:28:47.646Z,2.25
2022-09-14T14:29:52.739Z,2.47
2022-09-14T14:30:56.260Z,1.88
2022-09-14T14:31:59.447Z,2.13
2022-09-14T14:33:01.378Z,2.22
2022-09-14T14:34:17.584Z,2.08
2022-09-14T14:35:22.504Z,2.33
2022-09-14T14:36:25.511Z,2.17
2022-09-14T14:37:27.353Z,1.67
2022-09-14T14:38:30.161Z,1.58
2022-09-14T14:39:32.539Z,1.80
2022-09-14T14:40:35.844Z,2.60
2022-09-14T14:41:37.935Z,1.85
2022-09-14T14:42:41.541Z,1.73
2022-09-14T14:43:46.102Z,1.63
2022-09-14T14:44:50.264Z,1.50
2022-09-14T14:45:56.311Z,1.33
2022-09-14T14:46:59.178Z,1.85
2022-09-14T14:48:01.663Z,1.85